createdAt,value
2023-04-17T00:00:31.240Z,12.53
2023-04-17T00:03:01.740Z,14.27
2023-04-17T00:05:31.988Z,14.00
2023-04-17T00:08:00.419Z,14.27
2023-04-17T00:10:29.703Z,12.43
2023-04-17T00:12:57.728Z,12.17
2023-04-17T00:15:25.724Z,11.90
2023-04-17T00:17:53.661Z,12.10
2023-04-17T00:20:21.763Z,14.57
2023-04-17T00:22:49.707Z,13.40
2023-04-17T00:25:17.641Z,12.70
2023-04-17T00:27:47.167Z,13.33
2023-04-17T00:30:15.282Z,14.97
2023-04-17T00:32:43.214Z,12.73
2023-04-17T00:35:11.385Z,15.60
2023-04-17T00:37:39.307Z,13.40
2023-04-17T00:40:08.448Z,14.40
2023-04-17T00:42:36.422Z,12.20
2023-04-17T00:45:06.536Z,15.60
2023-04-17T00:47:34.679Z,13.20
2023-04-17T00:50:03.130Z,14.37
2023-04-17T00:52:31.600Z,19.47
2023-04-17T00:55:00.387Z,12.97
2023-04-17T00:57:28.504Z,11.27
2023-04-17T00:59:57.677Z,12.43
2023-04-17T01:02:27.201Z,13.57
2023-04-17T01:04:55.316Z,14.77
2023-04-17T01:07:23.212Z,13.87
2023-04-17T01:09:51.141Z,13.30
2023-04-17T01:12:20.608Z,15.23
2023-04-17T01:14:48.862Z,13.90
2023-04-17T01:17:19.006Z,12.67
2023-04-17T01:19:49.011Z,13.47
2023-04-17T01:22:17.465Z,11.60
2023-04-17T01:24:46.981Z,15.93
2023-04-17T01:27:15.364Z,13.47
2023-04-17T01:29:43.467Z,15.90
2023-04-17T01:32:11.572Z,14.50
2023-04-17T01:34:39.461Z,16.33
2023-04-17T01:37:07.573Z,14.67
2023-04-17T01:39:35.587Z,14.07
2023-04-17T01:42:05.268Z,17.40
2023-04-17T01:44:33.378Z,14.83
2023-04-17T01:47:01.457Z,13.30
2023-04-17T01:49:29.642Z,14.33
2023-04-17T01:51:57.534Z,15.20
2023-04-17T01:54:26.011Z,17.33
2023-04-17T01:56:55.114Z,15.40
2023-04-17T01:59:24.500Z,18.33
2023-04-17T02:01:52.733Z,15.20
2023-04-17T02:04:21.001Z,15.43
2023-04-17T02:06:48.980Z,15.07
2023-04-17T02:09:16.957Z,15.70
2023-04-17T02:11:44.870Z,17.03
2023-04-17T02:14:12.827Z,15.47
2023-04-17T02:16:46.106Z,16.27
2023-04-17T02:19:14.420Z,16.43
2023-04-17T02:21:42.300Z,17.40
2023-04-17T02:24:10.413Z,14.70
2023-04-17T02:26:38.396Z,16.20
2023-04-17T02:29:06.299Z,17.00
2023-04-17T02:31:34.230Z,17.70
2023-04-17T02:34:03.693Z,18.03
2023-04-17T02:36:32.055Z,17.13
2023-04-17T02:38:59.960Z,16.57
2023-04-17T02:41:27.915Z,18.33
2023-04-17T02:43:56.751Z,16.67
2023-04-17T02:46:24.734Z,16.23
2023-04-17T02:48:52.657Z,14.23
2023-04-17T02:51:21.936Z,18.63
2023-04-17T02:53:50.250Z,15.53
2023-04-17T02:56:18.409Z,16.87
2023-04-17T02:58:46.363Z,15.27
2023-04-17T03:01:14.268Z,16.23
2023-04-17T03:03:43.144Z,16.47
2023-04-17T03:06:11.357Z,15.83
2023-04-17T03:08:40.619Z,17.23
2023-04-17T03:11:08.587Z,15.93
2023-04-17T03:13:37.631Z,16.50
2023-04-17T03:16:06.401Z,15.50
2023-04-17T03:18:36.442Z,20.33
2023-04-17T03:21:04.544Z,16.27
2023-04-17T03:23:32.518Z,19.53
2023-04-17T03:26:02.058Z,17.10
2023-04-17T03:28:29.981Z,17.00
2023-04-17T03:30:59.550Z,16.37
2023-04-17T03:33:27.511Z,16.43
2023-04-17T03:35:55.435Z,15.43
2023-04-17T03:38:23.313Z,17.93
2023-04-17T03:40:51.512Z,17.07
2023-04-17T03:43:20.797Z,16.50
2023-04-17T03:45:48.784Z,19.27
2023-04-17T03:48:16.718Z,21.47
2023-04-17T03:50:44.630Z,18.40
2023-04-17T03:53:12.542Z,17.40
2023-04-17T03:55:40.824Z,19.53
2023-04-17T03:58:08.717Z,19.73
2023-04-17T04:00:38.591Z,19.80
2023-04-17T04:03:06.712Z,17.87
2023-04-17T04:05:34.731Z,28.17
2023-04-17T04:08:02.635Z,30.33
2023-04-17T04:10:32.504Z,20.90
2023-04-17T04:13:00.494Z,17.87
2023-04-17T04:15:28.438Z,20.00
2023-04-17T04:17:57.761Z,20.30
2023-04-17T04:20:25.700Z,22.33
2023-04-17T04:22:53.784Z,24.40
2023-04-17T04:25:21.858Z,18.30
2023-04-17T04:27:50.682Z,21.10
2023-04-17T04:30:18.652Z,19.40
2023-04-17T04:32:46.713Z,20.97
2023-04-17T04:35:16.902Z,17.47
2023-04-17T04:37:46.472Z,17.00
2023-04-17T04:40:14.960Z,16.23
2023-04-17T04:42:43.113Z,18.40
2023-04-17T04:45:11.862Z,19.87
2023-04-17T04:47:39.821Z,20.13
2023-04-17T04:50:08.856Z,19.67
2023-04-17T04:52:38.173Z,18.87
2023-04-17T04:55:07.460Z,17.00
2023-04-17T04:57:36.373Z,19.97
2023-04-17T05:00:06.512Z,17.40
2023-04-17T05:02:34.876Z,17.67
2023-04-17T05:05:03.008Z,21.03
2023-04-17T05:07:31.065Z,19.00
2023-04-17T05:10:00.488Z,18.83
2023-04-17T05:12:28.420Z,16.60
2023-04-17T05:14:56.312Z,17.13
2023-04-17T05:17:24.230Z,18.43
2023-04-17T05:19:52.311Z,18.33
2023-04-17T05:22:20.244Z,19.33
2023-04-17T05:24:48.154Z,21.00
2023-04-17T05:27:17.739Z,18.80
2023-04-17T05:29:45.722Z,17.23
2023-04-17T05:32:13.650Z,15.63
2023-04-17T05:34:41.529Z,15.27
2023-04-17T05:37:09.658Z,15.50
2023-04-17T05:39:38.052Z,25.73
2023-04-17T05:42:06.145Z,18.97
2023-04-17T05:44:35.448Z,17.70
2023-04-17T05:47:03.679Z,23.00
2023-04-17T05:49:31.619Z,18.80
2023-04-17T05:51:59.550Z,16.60
2023-04-17T05:54:28.998Z,17.13
2023-04-17T05:56:56.988Z,19.83
2023-04-17T05:59:25.324Z,17.83
2023-04-17T06:01:54.707Z,18.03
2023-04-17T06:04:22.915Z,18.30
2023-04-17T06:06:51.079Z,26.07
2023-04-17T06:09:19.264Z,21.93
2023-04-17T06:11:47.292Z,19.00
2023-04-17T06:14:15.199Z,17.87
2023-04-17T06:16:45.892Z,17.93
2023-04-17T06:19:15.316Z,17.00
2023-04-17T06:21:43.212Z,19.13
2023-04-17T06:24:11.148Z,18.90
2023-04-17T06:26:39.076Z,18.00
2023-04-17T06:29:06.972Z,21.17
2023-04-17T06:31:35.008Z,18.80
2023-04-17T06:34:03.071Z,19.37
2023-04-17T06:36:33.335Z,19.70
2023-04-17T06:39:01.244Z,19.60
2023-04-17T06:41:29.152Z,22.83
2023-04-17T06:43:57.106Z,19.33
2023-04-17T06:46:25.105Z,19.30
2023-04-17T06:48:53.024Z,21.07
2023-04-17T06:51:21.769Z,22.00
2023-04-17T06:53:51.110Z,22.03
2023-04-17T06:56:19.499Z,22.40
2023-04-17T06:58:47.706Z,22.83
2023-04-17T07:01:15.963Z,23.27
2023-04-17T07:03:44.621Z,29.37
2023-04-17T07:06:12.665Z,27.27
2023-04-17T07:08:40.623Z,25.57
2023-04-17T07:11:09.924Z,26.57
2023-04-17T07:13:37.907Z,24.57
2023-04-17T07:16:06.889Z,19.40
2023-04-17T07:18:34.990Z,22.23
2023-04-17T07:21:03.077Z,25.07
2023-04-17T07:23:31.147Z,20.67
2023-04-17T07:25:59.206Z,22.60
2023-04-17T07:28:28.511Z,26.77
2023-04-17T07:30:58.173Z,25.70
2023-04-17T07:33:26.500Z,28.97
2023-04-17T07:35:54.433Z,21.07
2023-04-17T07:38:22.340Z,21.47
2023-04-17T07:40:50.260Z,23.30
2023-04-17T07:43:18.433Z,25.73
2023-04-17T07:45:49.000Z,19.33
2023-04-17T07:48:18.631Z,22.87
2023-04-17T07:50:47.074Z,20.07
2023-04-17T07:53:15.045Z,28.07
2023-04-17T07:55:42.928Z,20.30
2023-04-17T07:58:11.453Z,21.07
2023-04-17T08:00:39.461Z,20.43
2023-04-17T08:03:09.165Z,18.13
2023-04-17T08:05:37.266Z,19.23
2023-04-17T08:08:05.788Z,19.43
2023-04-17T08:10:33.753Z,22.20
2023-04-17T08:13:01.861Z,19.30
2023-04-17T08:15:29.952Z,19.17
2023-04-17T08:17:58.556Z,18.57
2023-04-17T08:20:28.187Z,20.33
2023-04-17T08:22:56.099Z,20.60
2023-04-17T08:25:24.232Z,18.80
2023-04-17T08:27:52.962Z,15.23
2023-04-17T08:30:21.130Z,16.37
2023-04-17T08:32:52.236Z,18.40
2023-04-17T08:35:20.838Z,18.13
2023-04-17T08:37:50.553Z,16.37
2023-04-17T08:40:18.930Z,15.03
2023-04-17T08:42:48.284Z,16.50
2023-04-17T08:45:17.483Z,16.07
2023-04-17T08:47:45.511Z,17.10
2023-04-17T08:50:14.961Z,16.40
2023-04-17T08:52:46.591Z,15.07
2023-04-17T08:55:16.898Z,17.77
2023-04-17T08:57:58.317Z,14.50
2023-04-17T09:00:27.609Z,19.00
2023-04-17T09:02:57.297Z,19.17
2023-04-17T09:05:26.860Z,16.60
2023-04-17T09:08:08.653Z,14.57
2023-04-17T09:10:39.217Z,10.80
2023-04-17T09:13:07.622Z,11.80
2023-04-17T09:15:36.249Z,14.40
2023-04-17T09:18:04.456Z,8.87
2023-04-17T09:20:32.650Z,10.63
2023-04-17T09:23:02.590Z,11.67
2023-04-17T09:25:31.007Z,11.87
2023-04-17T09:28:12.814Z,10.17
2023-04-17T09:30:41.637Z,13.90
2023-04-17T09:33:12.131Z,10.60
2023-04-17T09:35:40.670Z,12.10
2023-04-17T09:38:08.793Z,11.77
2023-04-17T09:40:41.103Z,12.23
2023-04-17T09:43:11.516Z,13.53
2023-04-17T09:45:42.794Z,16.27
2023-04-17T09:48:12.226Z,11.70
2023-04-17T09:50:41.278Z,9.67
2023-04-17T09:53:10.211Z,12.00
2023-04-17T09:55:39.725Z,11.63
2023-04-17T09:58:09.338Z,11.27
2023-04-17T10:00:42.838Z,9.83
2023-04-17T10:03:11.531Z,12.03
2023-04-17T10:05:40.048Z,12.47
2023-04-17T10:08:08.417Z,11.03
2023-04-17T10:10:36.592Z,14.40
2023-04-17T10:13:08.670Z,12.63
2023-04-17T10:15:38.273Z,12.43
2023-04-17T10:18:23.388Z,13.90
2023-04-17T10:20:53.627Z,10.87
2023-04-17T10:23:32.724Z,11.23
2023-04-17T10:26:43.256Z,12.60
2023-04-17T10:29:12.764Z,12.03
2023-04-17T10:32:20.594Z,10.90
2023-04-17T10:34:50.040Z,9.07
2023-04-17T10:37:17.948Z,10.40
2023-04-17T10:39:57.734Z,12.80
2023-04-17T10:42:26.713Z,11.37
2023-04-17T10:44:59.785Z,11.43
2023-04-17T10:47:32.385Z,11.10
2023-04-17T10:50:06.379Z,8.07
2023-04-17T10:52:42.094Z,10.50
2023-04-17T10:55:11.252Z,9.47
2023-04-17T10:57:56.841Z,8.57
2023-04-17T11:00:38.005Z,8.60
2023-04-17T11:03:07.268Z,10.27
2023-04-17T11:05:36.755Z,6.90
2023-04-17T11:08:04.750Z,7.70
2023-04-17T11:10:37.122Z,8.43
2023-04-17T11:13:05.708Z,6.87
2023-04-17T11:15:35.423Z,6.57
2023-04-17T11:18:04.037Z,8.13
2023-04-17T11:20:34.151Z,8.97
2023-04-17T11:23:04.159Z,6.60
2023-04-17T11:25:34.399Z,7.67
2023-04-17T11:28:04.451Z,8.37
2023-04-17T11:30:34.262Z,7.57
2023-04-17T11:33:03.206Z,5.93
2023-04-17T11:35:33.095Z,4.33
2023-04-17T11:38:17.866Z,5.00
2023-04-17T11:40:47.615Z,5.67
2023-04-17T11:43:15.666Z,5.17
2023-04-17T11:45:45.019Z,5.10
2023-04-17T11:48:14.160Z,5.67
2023-04-17T11:50:43.604Z,4.80
2023-04-17T11:53:16.670Z,5.30
2023-04-17T11:55:45.644Z,6.00
2023-04-17T11:58:15.290Z,6.37
2023-04-17T12:00:43.722Z,5.00
2023-04-17T12:03:35.110Z,5.57
2023-04-17T12:06:04.827Z,6.27
2023-04-17T12:08:44.937Z,5.67
2023-04-17T12:11:25.161Z,6.43
2023-04-17T12:13:53.340Z,7.20
2023-04-17T12:16:21.461Z,5.87
2023-04-17T12:18:49.560Z,7.00
2023-04-17T12:21:18.053Z,6.97
2023-04-17T12:23:47.424Z,6.57
2023-04-17T12:26:15.418Z,6.83
2023-04-17T12:28:43.437Z,5.43
2023-04-17T12:31:11.458Z,5.17
2023-04-17T12:33:39.475Z,8.33
2023-04-17T12:36:08.516Z,5.87
2023-04-17T12:38:36.537Z,6.83
2023-04-17T12:41:05.885Z,7.77
2023-04-17T12:43:34.199Z,5.37
2023-04-17T12:46:03.233Z,4.17
2023-04-17T12:48:33.010Z,5.20
2023-04-17T12:51:01.342Z,5.07
2023-04-17T12:53:30.071Z,5.17
2023-04-17T12:55:58.792Z,7.40
2023-04-17T12:58:28.093Z,4.57
2023-04-17T13:00:56.098Z,6.27
2023-04-17T13:03:24.211Z,4.07
2023-04-17T13:05:53.386Z,5.17
2023-04-17T13:08:21.534Z,4.13
2023-04-17T13:10:49.436Z,4.27
2023-04-17T13:13:17.319Z,5.60
2023-04-17T13:15:47.942Z,7.23
2023-04-17T13:18:16.008Z,6.93
2023-04-17T13:20:43.957Z,3.93
2023-04-17T13:23:12.048Z,5.33
2023-04-17T13:25:40.030Z,8.17
2023-04-17T13:28:07.965Z,4.33
2023-04-17T13:30:37.256Z,5.87
2023-04-17T13:33:06.900Z,9.90
2023-04-17T13:35:34.836Z,5.40
2023-04-17T13:38:03.198Z,5.60
2023-04-17T13:40:31.248Z,7.83
2023-04-17T13:43:00.380Z,6.27
2023-04-17T13:45:28.421Z,5.93
2023-04-17T13:47:56.393Z,7.23
2023-04-17T13:50:25.702Z,6.13
2023-04-17T13:52:53.727Z,6.63
2023-04-17T13:55:21.689Z,6.60
2023-04-17T13:57:51.054Z,8.60
2023-04-17T14:00:20.877Z,10.43
2023-04-17T14:02:49.174Z,15.80
2023-04-17T14:05:17.311Z,7.70
2023-04-17T14:07:46.595Z,13.37
2023-04-17T14:10:14.560Z,6.87
2023-04-17T14:12:42.528Z,8.43
2023-04-17T14:15:11.563Z,5.97
2023-04-17T14:17:43.389Z,5.70
2023-04-17T14:20:12.402Z,3.90
2023-04-17T14:22:40.313Z,6.70
2023-04-17T14:25:10.556Z,6.30
2023-04-17T14:27:41.318Z,6.40
2023-04-17T14:30:10.153Z,4.87
2023-04-17T14:32:38.682Z,7.10
2023-04-17T14:35:07.645Z,7.07
2023-04-17T14:37:35.623Z,7.30
2023-04-17T14:40:04.796Z,6.47
2023-04-17T14:42:38.241Z,5.07
2023-04-17T14:45:15.261Z,5.33
2023-04-17T14:47:44.000Z,5.53
2023-04-17T14:52:43.135Z,5.73
2023-04-17T14:55:12.492Z,7.30
2023-04-17T14:57:41.913Z,6.17
2023-04-17T15:00:10.636Z,4.20
2023-04-17T15:02:39.543Z,6.80
2023-04-17T15:05:08.499Z,8.93
2023-04-17T15:07:36.517Z,5.53
2023-04-17T15:10:04.977Z,7.00
2023-04-17T15:12:32.908Z,4.57
2023-04-17T15:15:02.252Z,5.20
2023-04-17T15:17:30.200Z,4.53
2023-04-17T15:20:00.373Z,7.10
2023-04-17T15:22:28.642Z,4.33
2023-04-17T15:24:56.591Z,8.20
2023-04-17T15:27:24.698Z,5.80
2023-04-17T15:29:52.936Z,5.97
2023-04-17T15:32:22.314Z,7.43
2023-04-17T15:34:50.249Z,4.53
2023-04-17T15:37:18.154Z,5.80
2023-04-17T15:39:46.229Z,9.07
2023-04-17T15:42:14.179Z,5.33
2023-04-17T15:44:42.150Z,10.70
2023-04-17T15:47:10.120Z,8.83
2023-04-17T15:49:39.448Z,6.93
2023-04-17T15:52:07.662Z,6.83
2023-04-17T15:54:35.638Z,6.80
2023-04-17T15:57:03.517Z,6.63
2023-04-17T15:59:32.058Z,7.60
2023-04-17T16:02:00.226Z,5.57
2023-04-17T16:04:28.686Z,5.87
2023-04-17T16:06:58.084Z,7.37
2023-04-17T16:09:25.985Z,9.57
2023-04-17T16:11:53.867Z,9.30
2023-04-17T16:14:21.827Z,11.10
2023-04-17T16:16:49.714Z,6.60
2023-04-17T16:19:17.642Z,8.43
2023-04-17T16:21:45.591Z,6.53
2023-04-17T16:24:14.914Z,5.27
2023-04-17T16:26:42.816Z,5.97
2023-04-17T16:29:10.927Z,7.20
2023-04-17T16:31:38.907Z,7.70
2023-04-17T16:34:06.846Z,7.43
2023-04-17T16:36:34.787Z,6.10
2023-04-17T16:39:03.627Z,8.37
2023-04-17T16:41:32.939Z,8.30
2023-04-17T16:44:01.008Z,7.40
2023-04-17T16:46:40.320Z,6.67
2023-04-17T16:49:16.877Z,7.37
2023-04-17T16:51:47.195Z,8.80
2023-04-17T16:54:19.437Z,7.17
2023-04-17T16:56:49.254Z,4.87
2023-04-17T16:59:17.387Z,5.20
2023-04-17T17:01:47.072Z,7.10
2023-04-17T17:04:15.229Z,8.67
2023-04-17T17:06:43.415Z,5.23
2023-04-17T17:09:11.590Z,4.97
2023-04-17T17:11:39.714Z,6.60
2023-04-17T17:14:09.044Z,5.83
2023-04-17T17:16:37.049Z,9.57
2023-04-17T17:19:06.015Z,5.83
2023-04-17T17:21:34.231Z,6.33
2023-04-17T17:24:02.144Z,7.63
2023-04-17T17:26:30.110Z,6.00
2023-04-17T17:28:58.197Z,6.27
2023-04-17T17:31:27.516Z,6.47
2023-04-17T17:33:55.928Z,7.00
2023-04-17T17:36:23.835Z,4.57
2023-04-17T17:38:55.893Z,8.10
2023-04-17T17:41:24.151Z,5.63
2023-04-17T17:43:52.424Z,5.27
2023-04-17T17:46:21.304Z,7.70
2023-04-17T17:48:50.765Z,6.13
2023-04-17T17:51:18.686Z,6.30
2023-04-17T17:53:46.632Z,7.17
2023-04-17T17:56:15.199Z,8.77
2023-04-17T17:58:43.091Z,8.93
2023-04-17T18:01:11.071Z,7.00
2023-04-17T18:03:39.088Z,7.40
2023-04-17T18:06:08.507Z,6.77
2023-04-17T18:08:38.398Z,7.67
2023-04-17T18:11:06.393Z,6.83
2023-04-17T18:13:34.379Z,7.20
2023-04-17T18:16:04.656Z,8.90
2023-04-17T18:18:32.807Z,8.20
2023-04-17T18:21:00.818Z,8.37
2023-04-17T18:23:30.121Z,10.20
2023-04-17T18:25:58.891Z,10.57
2023-04-17T18:28:27.004Z,6.53
2023-04-17T18:30:55.106Z,7.43
2023-04-17T18:33:23.092Z,8.07
2023-04-17T18:35:51.079Z,6.63
2023-04-17T18:38:19.066Z,6.80
2023-04-17T18:40:48.353Z,7.67
2023-04-17T18:43:16.300Z,9.53
2023-04-17T18:45:44.228Z,6.10
2023-04-17T18:48:12.124Z,11.60
2023-04-17T18:50:40.152Z,8.20
2023-04-17T18:53:08.078Z,7.77
2023-04-17T18:55:37.210Z,9.40
2023-04-17T18:58:06.549Z,6.00
2023-04-17T19:00:34.524Z,7.67
2023-04-17T19:03:02.460Z,6.57
2023-04-17T19:05:30.456Z,7.43
2023-04-17T19:07:58.376Z,5.83
2023-04-17T19:10:26.324Z,6.03
2023-04-17T19:12:54.224Z,6.60
2023-04-17T19:15:24.308Z,7.07
2023-04-17T19:17:52.811Z,6.97
2023-04-17T19:20:22.764Z,6.40
2023-04-17T19:22:50.766Z,6.43
2023-04-17T19:25:18.740Z,9.07
2023-04-17T19:27:46.693Z,7.83
2023-04-17T19:30:14.777Z,8.53
2023-04-17T19:32:44.667Z,7.50
2023-04-17T19:35:12.623Z,5.30
2023-04-17T19:37:40.528Z,6.10
2023-04-17T19:40:21.384Z,6.83
2023-04-17T19:42:52.645Z,10.80
2023-04-17T19:45:20.887Z,6.43
2023-04-17T19:47:55.047Z,8.00
2023-04-17T19:50:23.816Z,5.93
2023-04-17T19:52:51.997Z,6.07
2023-04-17T19:55:20.140Z,6.63
2023-04-17T19:57:49.468Z,5.07
2023-04-17T20:00:17.784Z,5.87
2023-04-17T20:02:46.218Z,5.23
2023-04-17T20:05:17.017Z,7.93
2023-04-17T20:07:44.920Z,7.17
2023-04-17T20:10:13.073Z,7.47
2023-04-17T20:12:41.066Z,4.97
2023-04-17T20:15:10.358Z,8.63
2023-04-17T20:17:38.423Z,6.93
2023-04-17T20:20:07.815Z,8.17
2023-04-17T20:22:37.140Z,7.80
2023-04-17T20:25:05.613Z,7.47
2023-04-17T20:27:33.542Z,7.73
2023-04-17T20:30:01.489Z,11.80
2023-04-17T20:32:29.391Z,14.87
2023-04-17T20:34:57.355Z,9.53
2023-04-17T20:37:25.300Z,11.07
2023-04-17T20:39:54.613Z,11.03
2023-04-17T20:42:22.543Z,12.83
2023-04-17T20:44:50.458Z,12.00
2023-04-17T20:47:18.339Z,9.27
2023-04-17T20:49:46.300Z,9.63
2023-04-17T20:52:14.189Z,9.20
2023-04-17T20:54:42.209Z,8.60
2023-04-17T20:57:11.537Z,9.20
2023-04-17T20:59:39.425Z,9.20
2023-04-17T21:02:07.475Z,8.73
2023-04-17T21:04:35.505Z,11.87
2023-04-17T21:07:03.588Z,7.40
2023-04-17T21:09:31.545Z,9.30
2023-04-17T21:11:59.466Z,10.07
2023-04-17T21:14:29.572Z,9.53
2023-04-17T21:16:58.586Z,8.10
2023-04-17T21:19:27.359Z,13.73
2023-04-17T21:21:55.424Z,8.80
2023-04-17T21:24:23.362Z,9.77
2023-04-17T21:26:51.339Z,13.67
2023-04-17T21:29:19.283Z,11.13
2023-04-17T21:31:48.635Z,9.07
2023-04-17T21:34:16.575Z,11.50
2023-04-17T21:36:44.523Z,8.47
2023-04-17T21:39:12.414Z,12.13
2023-04-17T21:41:40.312Z,10.93
2023-04-17T21:44:10.297Z,10.07
2023-04-17T21:46:38.679Z,8.63
2023-04-17T21:49:07.963Z,9.27
2023-04-17T21:51:35.970Z,8.97
2023-04-17T21:54:04.235Z,9.83
2023-04-17T21:56:33.105Z,10.40
2023-04-17T21:59:01.008Z,11.23
2023-04-17T22:01:29.148Z,10.63
2023-04-17T22:03:57.063Z,11.57
2023-04-17T22:06:26.554Z,9.73
2023-04-17T22:08:54.468Z,8.97
2023-04-17T22:11:23.138Z,11.23
2023-04-17T22:13:51.052Z,10.27
2023-04-17T22:16:18.978Z,9.13
2023-04-17T22:18:46.938Z,11.63
2023-04-17T22:21:14.917Z,10.23
2023-04-17T22:23:44.281Z,9.23
2023-04-17T22:26:12.301Z,8.70
2023-04-17T22:28:40.212Z,9.17
2023-04-17T22:31:08.193Z,9.03
2023-04-17T22:33:36.133Z,9.60
2023-04-17T22:36:04.260Z,8.37
2023-04-17T22:38:32.221Z,9.00
2023-04-17T22:41:01.609Z,10.03
2023-04-17T22:43:29.549Z,10.17
2023-04-17T22:45:57.557Z,9.50
2023-04-17T22:48:25.671Z,9.73
2023-04-17T22:50:53.623Z,9.97
2023-04-17T22:53:22.495Z,11.27
2023-04-17T22:56:02.279Z,11.83
2023-04-17T22:58:32.348Z,13.57
2023-04-17T23:01:03.013Z,10.30
2023-04-17T23:03:31.003Z,9.83
2023-04-17T23:05:58.923Z,11.93
2023-04-17T23:08:26.956Z,8.53
2023-04-17T23:10:59.767Z,13.00
2023-04-17T23:13:29.245Z,12.93
2023-04-17T23:15:57.292Z,9.57
2023-04-17T23:18:25.461Z,11.90
2023-04-17T23:20:53.394Z,8.73
2023-04-17T23:23:21.602Z,10.07
2023-04-17T23:25:49.503Z,8.10
2023-04-17T23:28:17.452Z,9.40
2023-04-17T23:30:46.751Z,9.70
2023-04-17T23:33:14.676Z,10.63
2023-04-17T23:35:42.577Z,9.97
2023-04-17T23:38:10.503Z,11.10
2023-04-17T23:40:38.437Z,10.23
2023-04-17T23:43:06.348Z,9.00
2023-04-17T23:45:34.257Z,9.40
2023-04-17T23:48:03.599Z,11.07
2023-04-17T23:50:31.513Z,9.90
2023-04-17T23:52:59.434Z,13.90
2023-04-17T23:55:27.424Z,10.93
2023-04-17T23:57:55.381Z,11.03
